createdAt,value
2019-01-21T00:00:16.371Z,-1.10
2019-01-21T00:02:44.830Z,-1.10
2019-01-21T00:05:13.319Z,-1.10
2019-01-21T00:07:41.783Z,-1.10
2019-01-21T00:10:10.379Z,-1.10
2019-01-21T00:12:38.869Z,-1.00
2019-01-21T00:15:08.837Z,-1.10
2019-01-21T00:17:37.395Z,-1.10
2019-01-21T00:20:06.991Z,-1.10
2019-01-21T00:22:35.524Z,-1.10
2019-01-21T00:25:05.619Z,-1.10
2019-01-21T00:27:34.116Z,-1.10
2019-01-21T00:30:02.708Z,-1.10
2019-01-21T00:32:31.266Z,-1.00
2019-01-21T00:34:59.727Z,-1.00
2019-01-21T00:37:28.191Z,-1.00
2019-01-21T00:39:56.752Z,-1.00
2019-01-21T00:42:25.347Z,-1.00
2019-01-21T00:44:53.831Z,-1.00
2019-01-21T00:47:22.286Z,-0.90
2019-01-21T00:49:51.007Z,-1.00
2019-01-21T00:52:19.499Z,-1.00
2019-01-21T00:54:48.033Z,-1.00
2019-01-21T00:57:16.491Z,-1.10
2019-01-21T00:59:45.043Z,-1.00
2019-01-21T01:02:13.499Z,-1.00
2019-01-21T01:04:42.099Z,-1.00
2019-01-21T01:07:10.656Z,-1.00
2019-01-21T01:09:39.254Z,-1.00
2019-01-21T01:12:07.739Z,-0.90
2019-01-21T01:14:36.199Z,-1.00
2019-01-21T01:17:04.795Z,-1.00
2019-01-21T01:19:33.287Z,-1.00
2019-01-21T01:22:01.747Z,-1.00
2019-01-21T01:24:30.235Z,-1.00
2019-01-21T01:26:58.763Z,-0.90
2019-01-21T01:29:27.326Z,-1.00
2019-01-21T01:31:55.888Z,-1.00
2019-01-21T01:34:24.347Z,-1.00
2019-01-21T01:36:52.841Z,-1.00
2019-01-21T01:39:21.379Z,-1.00
2019-01-21T01:41:50.267Z,-1.00
2019-01-21T01:44:18.827Z,-1.00
2019-01-21T01:46:47.362Z,-1.00
2019-01-21T01:49:15.920Z,-1.00
2019-01-21T01:51:44.535Z,-1.10
2019-01-21T01:54:13.134Z,-1.10
2019-01-21T01:56:41.694Z,-1.10
2019-01-21T01:59:10.675Z,-1.10
2019-01-21T02:01:39.235Z,-1.10
2019-01-21T02:04:07.767Z,-1.10
2019-01-21T02:06:36.319Z,-1.10
2019-01-21T02:09:07.264Z,-1.10
2019-01-21T02:11:36.573Z,-1.10
2019-01-21T02:14:05.338Z,-1.10
2019-01-21T02:16:33.899Z,-1.20
2019-01-21T02:19:02.499Z,-1.20
2019-01-21T02:21:32.782Z,-1.20
2019-01-21T02:24:06.338Z,-1.20
2019-01-21T02:26:38.215Z,-1.30
2019-01-21T02:29:09.713Z,-1.40
2019-01-21T02:31:47.026Z,-1.40
2019-01-21T02:34:24.929Z,-1.40
2019-01-21T02:37:12.779Z,-1.40
2019-01-21T02:39:50.020Z,-1.50
2019-01-21T02:42:42.547Z,-1.60
2019-01-21T02:45:29.020Z,-1.60
2019-01-21T02:48:06.023Z,-1.70
2019-01-21T02:50:43.664Z,-1.70
2019-01-21T02:53:39.407Z,-1.70
2019-01-21T02:56:28.943Z,-1.80
2019-01-21T02:59:18.129Z,-1.80
2019-01-21T03:01:49.766Z,-1.80
2019-01-21T03:04:36.565Z,-1.90
2019-01-21T03:07:35.291Z,-2.00
2019-01-21T03:10:26.083Z,-2.00
2019-01-21T03:12:57.715Z,-2.00
2019-01-21T03:15:41.084Z,-2.10
2019-01-21T03:18:15.247Z,-2.10
2019-01-21T03:21:07.892Z,-2.10
2019-01-21T03:23:56.032Z,-2.20
2019-01-21T03:26:43.995Z,-2.20
2019-01-21T03:29:21.379Z,-2.20
2019-01-21T03:32:15.355Z,-2.30
2019-01-21T03:34:58.853Z,-2.30
2019-01-21T03:37:46.919Z,-2.30
2019-01-21T03:40:30.423Z,-2.40
2019-01-21T03:43:10.595Z,-2.40
2019-01-21T03:45:45.160Z,-2.40
2019-01-21T03:48:17.063Z,-2.40
2019-01-21T03:50:57.558Z,-2.50
2019-01-21T03:53:37.952Z,-2.50
2019-01-21T03:56:08.656Z,-2.50
2019-01-21T03:58:46.313Z,-2.50
2019-01-21T04:01:23.689Z,-2.60
2019-01-21T04:04:00.819Z,-2.60
2019-01-21T04:06:32.459Z,-2.70
2019-01-21T04:09:09.827Z,-2.70
2019-01-21T04:11:52.968Z,-2.70
2019-01-21T04:14:46.701Z,-2.70
2019-01-21T04:17:24.140Z,-2.70
2019-01-21T04:20:13.427Z,-2.80
2019-01-21T04:23:05.687Z,-2.80
2019-01-21T04:25:45.447Z,-2.80
2019-01-21T04:28:22.692Z,-2.80
2019-01-21T04:31:05.901Z,-2.90
2019-01-21T04:33:55.517Z,-2.90
2019-01-21T04:36:39.027Z,-2.90
2019-01-21T04:39:13.319Z,-3.00
2019-01-21T04:42:02.936Z,-3.00
2019-01-21T04:44:59.955Z,-3.00
2019-01-21T04:47:46.663Z,-3.10
2019-01-21T04:50:21.175Z,-3.10
2019-01-21T04:52:58.578Z,-3.10
2019-01-21T04:55:53.924Z,-3.10
2019-01-21T04:58:44.640Z,-3.10
2019-01-21T05:01:25.346Z,-3.10
2019-01-21T05:04:27.035Z,-3.10
2019-01-21T05:07:04.332Z,-3.20
2019-01-21T05:09:45.468Z,-3.20
2019-01-21T05:12:29.076Z,-3.20
2019-01-21T05:15:18.336Z,-3.20
2019-01-21T05:18:16.977Z,-3.20
2019-01-21T05:21:04.952Z,-3.20
2019-01-21T05:24:01.819Z,-3.20
2019-01-21T05:26:52.716Z,-3.20
2019-01-21T05:29:45.027Z,-3.30
2019-01-21T05:32:25.263Z,-3.20
2019-01-21T05:35:11.537Z,-3.30
2019-01-21T05:38:00.860Z,-3.30
2019-01-21T05:40:38.611Z,-3.30
2019-01-21T05:43:18.795Z,-3.30
2019-01-21T05:46:09.783Z,-3.30
2019-01-21T05:48:56.139Z,-3.30
2019-01-21T05:51:54.911Z,-3.30
2019-01-21T05:54:38.079Z,-3.30
2019-01-21T05:57:12.203Z,-3.20
2019-01-21T05:59:43.731Z,-3.20
2019-01-21T06:02:37.412Z,-3.20
2019-01-21T06:05:11.599Z,-3.10
2019-01-21T06:07:43.153Z,-3.00
2019-01-21T06:10:15.019Z,-3.00
2019-01-21T06:12:55.311Z,-2.90
2019-01-21T06:15:41.915Z,-2.90
2019-01-21T06:18:22.632Z,-2.80
2019-01-21T06:21:12.373Z,-2.70
2019-01-21T06:23:46.875Z,-2.70
2019-01-21T06:26:52.850Z,-2.60
2019-01-21T06:29:30.045Z,-2.60
2019-01-21T06:32:01.652Z,-2.60
2019-01-21T06:34:51.320Z,-2.60
2019-01-21T06:37:39.231Z,-2.50
2019-01-21T06:40:13.615Z,-2.40
2019-01-21T06:43:08.998Z,-2.40
2019-01-21T06:45:56.697Z,-2.40
2019-01-21T06:48:47.699Z,-2.40
2019-01-21T06:51:50.694Z,-2.40
2019-01-21T06:54:38.703Z,-2.40
2019-01-21T06:57:35.473Z,-2.30
2019-01-21T07:00:18.631Z,-2.30
2019-01-21T07:02:52.769Z,-2.30
2019-01-21T07:05:57.413Z,-2.30
2019-01-21T07:08:37.847Z,-2.30
2019-01-21T07:11:33.492Z,-2.30
2019-01-21T07:14:23.008Z,-2.20
2019-01-21T07:17:09.275Z,-2.20
2019-01-21T07:19:49.647Z,-2.20
2019-01-21T07:22:32.712Z,-2.10
2019-01-21T07:25:22.103Z,-2.10
2019-01-21T07:28:14.131Z,-2.10
2019-01-21T07:30:48.383Z,-2.10
2019-01-21T07:33:31.556Z,-2.10
2019-01-21T07:36:30.295Z,-2.10
2019-01-21T07:39:23.941Z,-2.10
2019-01-21T07:42:11.980Z,-2.10
2019-01-21T07:44:49.079Z,-2.10
2019-01-21T07:47:37.143Z,-2.00
2019-01-21T07:50:26.706Z,-2.00
2019-01-21T07:53:04.288Z,-2.00
2019-01-21T07:55:56.860Z,-1.90
2019-01-21T07:58:47.683Z,-1.90
2019-01-21T08:01:31.248Z,-1.90
2019-01-21T08:04:21.951Z,-1.80
2019-01-21T08:06:59.395Z,-1.80
2019-01-21T08:09:36.803Z,-1.80
2019-01-21T08:12:27.691Z,-1.70
2019-01-21T08:15:01.755Z,-1.60
2019-01-21T08:17:47.866Z,-1.60
2019-01-21T08:20:22.356Z,-1.50
2019-01-21T08:23:14.720Z,-1.50
2019-01-21T08:25:52.392Z,-1.30
2019-01-21T08:28:35.919Z,-1.20
2019-01-21T08:31:19.535Z,-1.10
2019-01-21T08:34:02.844Z,-1.00
2019-01-21T08:36:43.091Z,-0.80
2019-01-21T08:39:32.299Z,-0.50
2019-01-21T08:42:06.847Z,-0.20
2019-01-21T08:44:46.996Z,0.30
2019-01-21T08:47:36.703Z,1.30
2019-01-21T08:50:17.221Z,2.70
2019-01-21T08:53:06.675Z,4.40
2019-01-21T08:55:38.543Z,6.10
2019-01-21T08:58:26.542Z,7.80
2019-01-21T09:01:17.279Z,8.90
2019-01-21T09:03:54.900Z,10.20
2019-01-21T09:06:47.181Z,10.90
2019-01-21T09:09:27.608Z,11.00
2019-01-21T09:12:14.115Z,11.10
2019-01-21T09:14:57.619Z,10.80
2019-01-21T09:17:44.108Z,10.60
2019-01-21T09:20:48.699Z,10.40
2019-01-21T09:23:25.735Z,11.10
2019-01-21T09:25:57.364Z,12.00
2019-01-21T09:28:31.411Z,12.90
2019-01-21T09:31:02.971Z,13.40
2019-01-21T09:33:40.240Z,13.60
2019-01-21T09:36:17.336Z,13.60
2019-01-21T09:39:08.448Z,13.60
2019-01-21T09:41:43.555Z,13.70
2019-01-21T09:44:17.902Z,13.50
2019-01-21T09:46:45.772Z,13.30
2019-01-21T09:49:13.543Z,13.00
2019-01-21T09:51:46.823Z,12.70
2019-01-21T09:54:15.714Z,12.70
2019-01-21T09:56:44.323Z,12.90
2019-01-21T09:59:13.140Z,13.60
2019-01-21T10:01:42.434Z,14.40
2019-01-21T10:04:14.322Z,15.60
2019-01-21T10:06:45.875Z,16.30
2019-01-21T10:09:41.309Z,17.40
2019-01-21T10:12:35.223Z,18.50
2019-01-21T10:15:24.495Z,19.60
2019-01-21T10:18:04.743Z,20.60
2019-01-21T10:20:45.035Z,21.60
2019-01-21T10:23:34.324Z,21.80
2019-01-21T10:26:11.383Z,22.40
2019-01-21T10:28:54.641Z,21.70
2019-01-21T10:31:32.061Z,21.90
2019-01-21T10:34:21.251Z,20.50
2019-01-21T10:37:24.243Z,19.30
2019-01-21T10:40:01.277Z,18.90
2019-01-21T10:42:48.972Z,18.20
2019-01-21T10:45:37.127Z,17.80
2019-01-21T10:48:29.444Z,17.90
2019-01-21T10:51:13.063Z,17.40
2019-01-21T10:53:50.308Z,16.90
2019-01-21T10:56:33.815Z,16.60
2019-01-21T10:59:24.895Z,16.00
2019-01-21T11:01:59.438Z,15.70
2019-01-21T11:04:47.499Z,15.10
2019-01-21T11:07:21.725Z,14.60
2019-01-21T11:09:53.359Z,14.30
2019-01-21T11:12:33.723Z,13.90
2019-01-21T11:15:05.544Z,13.70
2019-01-21T11:17:49.114Z,13.20
2019-01-21T11:20:45.980Z,13.00
2019-01-21T11:23:29.196Z,12.90
2019-01-21T11:26:23.278Z,12.80
2019-01-21T11:29:00.527Z,12.70
2019-01-21T11:31:40.606Z,12.60
2019-01-21T11:34:18.088Z,12.70
2019-01-21T11:37:12.183Z,13.20
2019-01-21T11:39:46.657Z,13.30
2019-01-21T11:42:39.107Z,13.50
2019-01-21T11:45:25.555Z,13.70
2019-01-21T11:48:18.062Z,14.10
2019-01-21T11:50:58.453Z,13.40
2019-01-21T11:53:35.723Z,13.90
2019-01-21T11:56:07.259Z,14.00
2019-01-21T11:58:44.391Z,14.10
2019-01-21T12:01:32.074Z,14.20
2019-01-21T12:04:15.656Z,14.40
2019-01-21T12:06:47.195Z,14.10
2019-01-21T12:09:36.347Z,14.10
2019-01-21T12:12:08.150Z,14.40
2019-01-21T12:15:06.972Z,14.50
2019-01-21T12:17:53.182Z,13.70
2019-01-21T12:20:39.596Z,13.00
2019-01-21T12:23:22.801Z,13.00
2019-01-21T12:26:00.534Z,12.90
2019-01-21T12:28:40.624Z,13.00
2019-01-21T12:31:32.499Z,12.40
2019-01-21T12:34:04.299Z,12.10
2019-01-21T12:36:38.667Z,12.20
2019-01-21T12:39:16.123Z,12.30
2019-01-21T12:41:53.278Z,12.00
2019-01-21T12:44:42.444Z,12.00
2019-01-21T12:47:40.579Z,11.80
2019-01-21T12:50:45.049Z,11.80
2019-01-21T12:53:25.508Z,11.60
2019-01-21T12:55:59.730Z,11.40
2019-01-21T12:58:37.184Z,11.40
2019-01-21T13:01:20.450Z,11.30
2019-01-21T13:04:09.759Z,11.30
2019-01-21T13:06:50.146Z,11.30
2019-01-21T13:09:38.268Z,11.40
2019-01-21T13:12:26.047Z,11.20
2019-01-21T13:15:00.271Z,11.30
2019-01-21T13:17:34.655Z,11.30
2019-01-21T13:20:30.571Z,10.90
2019-01-21T13:22:58.870Z,10.50
2019-01-21T13:25:33.551Z,10.60
2019-01-21T13:28:14.055Z,10.60
2019-01-21T13:31:09.487Z,10.70
2019-01-21T13:33:43.652Z,10.80
2019-01-21T13:36:21.035Z,10.90
2019-01-21T13:38:58.243Z,10.90
2019-01-21T13:41:29.806Z,10.80
2019-01-21T13:44:13.063Z,10.90
2019-01-21T13:47:11.679Z,10.60
2019-01-21T13:49:43.211Z,10.10
2019-01-21T13:52:36.502Z,9.70
2019-01-21T13:55:16.610Z,9.60
2019-01-21T13:58:12.252Z,9.70
2019-01-21T14:00:52.611Z,9.50
2019-01-21T14:03:30.088Z,9.70
2019-01-21T14:06:10.376Z,9.70
2019-01-21T14:08:47.911Z,9.70
2019-01-21T14:11:28.197Z,9.60
2019-01-21T14:14:02.919Z,9.30
2019-01-21T14:16:46.042Z,9.20
2019-01-21T14:19:32.564Z,9.10
2019-01-21T14:22:10.137Z,8.90
2019-01-21T14:24:44.287Z,8.70
2019-01-21T14:27:18.783Z,8.30
2019-01-21T14:29:53.014Z,8.10
2019-01-21T14:32:27.618Z,8.00
2019-01-21T14:34:59.248Z,7.80
2019-01-21T14:37:39.332Z,7.70
2019-01-21T14:40:16.500Z,7.40
2019-01-21T14:42:57.033Z,7.40
2019-01-21T14:45:52.123Z,7.20
2019-01-21T14:48:41.537Z,6.90
2019-01-21T14:51:35.633Z,6.70
2019-01-21T14:54:15.979Z,6.50
2019-01-21T14:56:59.506Z,6.40
2019-01-21T14:59:39.959Z,6.10
2019-01-21T15:02:23.438Z,5.90
2019-01-21T15:04:57.916Z,5.70
2019-01-21T15:07:29.582Z,5.60
2019-01-21T15:10:09.927Z,5.40
2019-01-21T15:12:41.527Z,5.20
2019-01-21T15:15:24.967Z,5.00
2019-01-21T15:17:56.533Z,4.90
2019-01-21T15:20:28.159Z,4.70
2019-01-21T15:23:02.412Z,4.60
2019-01-21T15:25:42.652Z,4.40
2019-01-21T15:28:42.452Z,4.30
2019-01-21T15:31:25.517Z,4.10
2019-01-21T15:34:08.749Z,4.00
2019-01-21T15:36:51.456Z,3.90
2019-01-21T15:39:28.880Z,3.80
2019-01-21T15:42:00.451Z,3.70
2019-01-21T15:44:38.138Z,3.70
2019-01-21T15:47:18.628Z,3.50
2019-01-21T15:49:52.750Z,3.40
2019-01-21T15:52:27.235Z,3.30
2019-01-21T15:55:10.748Z,3.20
2019-01-21T15:57:44.964Z,3.10
2019-01-21T16:00:40.195Z,3.00
2019-01-21T16:03:20.759Z,2.90
2019-01-21T16:06:12.567Z,2.80
2019-01-21T16:08:44.101Z,2.70
2019-01-21T16:11:24.327Z,2.50
2019-01-21T16:13:53.095Z,2.50
2019-01-21T16:16:41.235Z,2.40
2019-01-21T16:19:13.031Z,2.30
2019-01-21T16:21:50.458Z,2.20
2019-01-21T16:24:33.836Z,2.10
2019-01-21T16:27:06.072Z,2.00
2019-01-21T16:29:43.304Z,2.00
2019-01-21T16:32:11.865Z,1.90
2019-01-21T16:34:51.610Z,1.90
2019-01-21T16:37:23.235Z,1.90
2019-01-21T16:39:54.785Z,1.80
2019-01-21T16:42:22.241Z,1.80
2019-01-21T16:44:50.800Z,1.70
2019-01-21T16:47:19.269Z,1.60
2019-01-21T16:49:47.967Z,1.60
2019-01-21T16:52:16.425Z,1.60
2019-01-21T16:54:44.999Z,1.50
2019-01-21T16:57:13.801Z,1.50
2019-01-21T16:59:42.557Z,1.50
2019-01-21T17:02:11.159Z,1.50
2019-01-21T17:04:39.692Z,1.40
2019-01-21T17:07:08.508Z,1.30
2019-01-21T17:09:37.124Z,1.30
2019-01-21T17:12:05.761Z,1.20
2019-01-21T17:14:34.620Z,1.20
2019-01-21T17:17:03.179Z,1.10
2019-01-21T17:19:31.639Z,1.10
2019-01-21T17:22:00.268Z,1.00
2019-01-21T17:24:29.168Z,1.00
2019-01-21T17:26:57.653Z,1.00
2019-01-21T17:29:26.116Z,0.90
2019-01-21T17:31:54.716Z,0.90
2019-01-21T17:34:23.248Z,0.90
2019-01-21T17:36:51.717Z,0.90
2019-01-21T17:39:20.279Z,0.80
2019-01-21T17:41:48.812Z,0.80
2019-01-21T17:44:17.443Z,0.80
2019-01-21T17:46:45.908Z,0.70
2019-01-21T17:49:14.405Z,0.70
2019-01-21T17:51:43.015Z,0.60
2019-01-21T17:54:11.580Z,0.60
2019-01-21T17:56:40.125Z,0.60
2019-01-21T17:59:08.988Z,0.50
2019-01-21T18:01:39.369Z,0.50
2019-01-21T18:04:07.880Z,0.40
2019-01-21T18:06:36.508Z,0.40
2019-01-21T18:09:07.659Z,0.30
2019-01-21T18:11:41.267Z,0.20
2019-01-21T18:14:06.553Z,0.20
2019-01-21T18:16:35.122Z,0.20
2019-01-21T18:19:03.731Z,0.10
2019-01-21T18:21:32.408Z,0.10
2019-01-21T18:24:01.043Z,0.00
2019-01-21T18:26:29.579Z,0.00
2019-01-21T18:28:58.150Z,0.00
2019-01-21T18:31:26.691Z,-0.10
2019-01-21T18:33:55.268Z,-0.10
2019-01-21T18:36:23.806Z,-0.10
2019-01-21T18:38:52.561Z,-0.20
2019-01-21T18:41:21.289Z,-0.20
2019-01-21T18:43:49.926Z,-0.20
2019-01-21T18:46:18.545Z,-0.30
2019-01-21T18:48:47.408Z,-0.30
2019-01-21T18:51:15.943Z,-0.50
2019-01-21T18:53:44.421Z,-0.60
2019-01-21T18:56:12.984Z,-0.60
2019-01-21T18:58:41.607Z,-0.60
2019-01-21T19:01:10.248Z,-0.60
2019-01-21T19:03:38.851Z,-0.70
2019-01-21T19:06:07.348Z,-0.80
2019-01-21T19:08:35.886Z,-0.80
2019-01-21T19:11:04.532Z,-0.90
2019-01-21T19:13:33.081Z,-0.90
2019-01-21T19:16:01.656Z,-0.90
2019-01-21T19:18:30.200Z,-1.00
2019-01-21T19:20:58.780Z,-1.00
2019-01-21T19:23:27.331Z,-1.00
2019-01-21T19:25:55.863Z,-1.10
2019-01-21T19:28:24.357Z,-1.20
2019-01-21T19:30:52.900Z,-1.20
2019-01-21T19:33:21.400Z,-1.30
2019-01-21T19:35:50.008Z,-1.30
2019-01-21T19:38:18.584Z,-1.40
2019-01-21T19:40:47.204Z,-1.50
2019-01-21T19:43:15.772Z,-1.50
2019-01-21T19:45:44.384Z,-1.60
2019-01-21T19:48:12.959Z,-1.60
2019-01-21T19:50:41.756Z,-1.60
2019-01-21T19:53:10.227Z,-1.60
2019-01-21T19:55:40.531Z,-1.60
2019-01-21T19:58:09.512Z,-1.60
2019-01-21T20:00:38.324Z,-1.60
2019-01-21T20:03:06.956Z,-1.60
2019-01-21T20:05:35.644Z,-1.70
2019-01-21T20:08:04.548Z,-1.80
2019-01-21T20:10:33.158Z,-1.80
2019-01-21T20:13:01.903Z,-1.80
2019-01-21T20:15:30.444Z,-1.80
2019-01-21T20:17:59.094Z,-1.80
2019-01-21T20:20:31.059Z,-1.80
2019-01-21T20:22:59.703Z,-1.80
2019-01-21T20:25:28.595Z,-1.90
2019-01-21T20:27:57.073Z,-2.00
2019-01-21T20:30:26.176Z,-2.10
2019-01-21T20:32:54.663Z,-2.10
2019-01-21T20:35:23.615Z,-2.20
2019-01-21T20:37:52.227Z,-2.30
2019-01-21T20:40:25.792Z,-2.30
2019-01-21T20:42:54.419Z,-2.30
2019-01-21T20:45:23.607Z,-2.30
2019-01-21T20:47:52.316Z,-2.40
2019-01-21T20:50:29.419Z,-2.40
2019-01-21T20:52:58.031Z,-2.40
2019-01-21T20:55:27.034Z,-2.50
2019-01-21T20:57:55.865Z,-2.50
2019-01-21T21:00:28.882Z,-2.60
2019-01-21T21:02:57.683Z,-2.50
2019-01-21T21:05:26.491Z,-2.60
2019-01-21T21:07:55.061Z,-2.60
2019-01-21T21:10:23.870Z,-2.70
2019-01-21T21:12:52.845Z,-2.70
2019-01-21T21:15:27.032Z,-2.70
2019-01-21T21:17:55.864Z,-2.80
2019-01-21T21:20:24.327Z,-2.80
2019-01-21T21:22:52.868Z,-2.80
2019-01-21T21:25:22.469Z,-2.80
2019-01-21T21:27:51.085Z,-2.90
2019-01-21T21:30:28.204Z,-2.90
2019-01-21T21:32:56.908Z,-2.90
2019-01-21T21:35:25.784Z,-3.00
2019-01-21T21:37:54.364Z,-3.00
2019-01-21T21:40:23.351Z,-3.00
2019-01-21T21:42:52.141Z,-2.90
2019-01-21T21:45:22.047Z,-3.00
2019-01-21T21:47:51.027Z,-2.90
2019-01-21T21:50:22.039Z,-3.00
2019-01-21T21:52:50.657Z,-3.00
2019-01-21T21:55:19.267Z,-3.00
2019-01-21T21:57:47.838Z,-3.00
2019-01-21T22:00:27.508Z,-3.00
2019-01-21T22:02:56.083Z,-3.00
2019-01-21T22:05:24.768Z,-3.00
2019-01-21T22:07:53.453Z,-3.00
2019-01-21T22:10:24.260Z,-3.00
2019-01-21T22:12:52.974Z,-3.00
2019-01-21T22:15:22.886Z,-3.00
2019-01-21T22:17:51.555Z,-3.00
2019-01-21T22:20:21.967Z,-3.00
2019-01-21T22:22:50.571Z,-3.00
2019-01-21T22:25:19.445Z,-3.10
2019-01-21T22:27:48.066Z,-3.10
2019-01-21T22:30:21.975Z,-3.20
2019-01-21T22:32:50.523Z,-3.30
2019-01-21T22:35:19.135Z,-3.30
2019-01-21T22:37:48.061Z,-3.30
2019-01-21T22:40:20.942Z,-3.40
2019-01-21T22:42:49.616Z,-3.40
2019-01-21T22:45:19.612Z,-3.40
2019-01-21T22:47:48.147Z,-3.40
2019-01-21T22:50:17.477Z,-3.50
2019-01-21T22:52:46.079Z,-3.40
2019-01-21T22:55:15.652Z,-3.50
2019-01-21T22:57:44.444Z,-3.50
2019-01-21T23:00:24.846Z,-3.50
2019-01-21T23:02:53.402Z,-3.60
2019-01-21T23:05:21.869Z,-3.60
2019-01-21T23:07:50.407Z,-3.60
2019-01-21T23:10:18.964Z,-3.60
2019-01-21T23:12:47.494Z,-3.60
2019-01-21T23:15:16.125Z,-3.60
2019-01-21T23:17:44.651Z,-3.70
2019-01-21T23:20:13.283Z,-3.70
2019-01-21T23:22:45.306Z,-3.70
2019-01-21T23:25:12.138Z,-3.70
2019-01-21T23:27:41.155Z,-3.70
2019-01-21T23:30:15.415Z,-3.70
2019-01-21T23:32:43.975Z,-3.70
2019-01-21T23:35:12.739Z,-3.70
2019-01-21T23:37:41.346Z,-3.80
2019-01-21T23:40:11.356Z,-3.80
2019-01-21T23:42:40.227Z,-3.80
2019-01-21T23:45:10.098Z,-3.90
2019-01-21T23:47:38.651Z,-4.00
2019-01-21T23:50:12.635Z,-4.00
2019-01-21T23:52:41.374Z,-4.00
2019-01-21T23:55:11.243Z,-4.10
2019-01-21T23:57:39.869Z,-4.10
